Weather at Drake Field

Public forecast

Using degrees Fahrenheit for public forecast. Weather courtesy of forecast.io.

Current aviation weather report (METAR) for Drake Field

Retrieved 2021/04/12 15:53 UTC (18 minutes ago):

KFYV 121553Z 04005KT 10SM CLR 18/08 A2994 RMK AO2 SLP133 T01780078

Aviation forecast (TAF) for Drake Field

Retrieved 2021/04/12 12:30 UTC (4 hours ago):

TAF KFYV 121128Z 1212/1312 02009G18KT P6SM SCT150 FM122100 02010G19KT P6SM BKN090 FM130200 02012G21KT 6SM -SHRA BKN060 TEMPO 1304/1308 3SM -TSRA BKN050CB